createdAt,value
2018-08-14T00:01:27.027Z,24.10
2018-08-14T00:03:54.387Z,24.10
2018-08-14T00:06:21.735Z,24.10
2018-08-14T00:08:49.184Z,24.10
2018-08-14T00:11:17.244Z,24.10
2018-08-14T00:13:44.612Z,24.10
2018-08-14T00:16:12.008Z,24.10
2018-08-14T00:18:39.388Z,24.20
2018-08-14T00:21:06.766Z,24.10
2018-08-14T00:23:34.205Z,24.10
2018-08-14T00:26:01.603Z,24.10
2018-08-14T00:28:28.977Z,24.10
2018-08-14T00:30:56.317Z,24.10
2018-08-14T00:33:23.667Z,24.10
2018-08-14T00:35:51.011Z,24.10
2018-08-14T00:38:18.411Z,24.10
2018-08-14T00:40:45.774Z,24.10
2018-08-14T00:43:13.200Z,24.10
2018-08-14T00:45:40.553Z,24.10
2018-08-14T00:48:08.180Z,24.10
2018-08-14T00:50:35.558Z,24.10
2018-08-14T00:53:03.204Z,24.10
2018-08-14T00:55:30.568Z,24.10
2018-08-14T00:57:57.916Z,24.10
2018-08-14T01:00:28.827Z,24.10
2018-08-14T01:02:56.208Z,24.10
2018-08-14T01:05:23.587Z,24.10
2018-08-14T01:07:50.927Z,24.10
2018-08-14T01:10:18.469Z,24.10
2018-08-14T01:12:48.456Z,24.10
2018-08-14T01:15:17.380Z,24.10
2018-08-14T01:17:46.736Z,24.20
2018-08-14T01:20:14.628Z,24.10
2018-08-14T01:22:43.109Z,24.10
2018-08-14T01:25:10.524Z,24.10
2018-08-14T01:27:37.909Z,24.10
2018-08-14T01:30:08.672Z,24.10
2018-08-14T01:32:36.337Z,24.10
2018-08-14T01:35:03.975Z,24.10
2018-08-14T01:37:31.323Z,24.10
2018-08-14T01:39:58.785Z,24.10
2018-08-14T01:42:26.144Z,24.10
2018-08-14T01:44:53.478Z,24.00
2018-08-14T01:47:20.862Z,24.10
2018-08-14T01:49:48.191Z,24.00
2018-08-14T01:52:15.539Z,24.00
2018-08-14T01:54:42.883Z,24.10
2018-08-14T01:57:10.286Z,24.10
2018-08-14T01:59:37.723Z,24.10
2018-08-14T02:02:05.120Z,24.10
2018-08-14T02:04:32.487Z,24.10
2018-08-14T02:06:59.842Z,24.10
2018-08-14T02:09:27.210Z,24.10
2018-08-14T02:11:54.552Z,24.00
2018-08-14T02:14:21.891Z,24.00
2018-08-14T02:16:49.251Z,24.00
2018-08-14T02:19:16.617Z,24.10
2018-08-14T02:21:43.955Z,24.00
2018-08-14T02:24:11.305Z,24.00
2018-08-14T02:26:38.679Z,24.00
2018-08-14T02:29:06.046Z,24.00
2018-08-14T02:31:33.385Z,24.00
2018-08-14T02:34:00.727Z,24.00
2018-08-14T02:36:28.084Z,23.90
2018-08-14T02:38:55.447Z,24.00
2018-08-14T02:41:22.782Z,24.00
2018-08-14T02:43:50.114Z,23.90
2018-08-14T02:46:17.463Z,24.00
2018-08-14T02:48:44.817Z,24.00
2018-08-14T02:51:12.140Z,23.90
2018-08-14T02:53:39.521Z,24.00
2018-08-14T02:56:06.911Z,23.90
2018-08-14T02:58:34.317Z,23.90
2018-08-14T03:01:01.661Z,24.00
2018-08-14T03:03:29.030Z,23.90
2018-08-14T03:05:56.401Z,23.90
2018-08-14T03:08:23.772Z,24.00
2018-08-14T03:10:51.136Z,23.90
2018-08-14T03:13:18.511Z,23.90
2018-08-14T03:15:45.875Z,23.90
2018-08-14T03:18:13.280Z,23.90
2018-08-14T03:20:40.678Z,23.90
2018-08-14T03:23:08.959Z,23.90
2018-08-14T03:25:36.464Z,23.90
2018-08-14T03:28:03.827Z,23.90
2018-08-14T03:30:31.232Z,23.80
2018-08-14T03:32:58.599Z,23.90
2018-08-14T03:35:26.003Z,23.90
2018-08-14T03:37:53.352Z,23.80
2018-08-14T03:40:20.710Z,23.80
2018-08-14T03:42:48.977Z,23.80
2018-08-14T03:45:16.549Z,23.80
2018-08-14T03:47:44.373Z,23.80
2018-08-14T03:50:12.407Z,23.80
2018-08-14T03:52:40.490Z,23.70
2018-08-14T03:55:10.051Z,23.80
2018-08-14T03:57:37.421Z,23.80
2018-08-14T04:00:07.559Z,23.80
2018-08-14T04:02:34.910Z,23.80
2018-08-14T04:05:02.291Z,23.80
2018-08-14T04:07:29.660Z,23.80
2018-08-14T04:09:57.024Z,23.80
2018-08-14T04:12:24.425Z,23.80
2018-08-14T04:14:51.798Z,23.70
2018-08-14T04:17:19.171Z,23.80
2018-08-14T04:19:46.521Z,23.80
2018-08-14T04:22:13.870Z,23.80
2018-08-14T04:24:41.205Z,23.80
2018-08-14T04:27:08.553Z,23.80
2018-08-14T04:29:35.908Z,23.80
2018-08-14T04:32:03.329Z,23.80
2018-08-14T04:34:30.744Z,23.80
2018-08-14T04:36:58.094Z,23.80
2018-08-14T04:39:25.472Z,23.70
2018-08-14T04:41:52.837Z,23.80
2018-08-14T04:44:20.208Z,23.80
2018-08-14T04:46:47.608Z,23.80
2018-08-14T04:49:14.994Z,23.80
2018-08-14T04:51:42.367Z,23.80
2018-08-14T04:54:09.753Z,23.80
2018-08-14T04:56:37.171Z,23.90
2018-08-14T04:59:05.227Z,23.80
2018-08-14T05:01:32.622Z,23.90
2018-08-14T05:04:00.033Z,23.70
2018-08-14T05:06:27.391Z,23.80
2018-08-14T05:08:54.795Z,23.80
2018-08-14T05:11:22.217Z,23.90
2018-08-14T05:13:54.143Z,24.10
2018-08-14T05:16:21.514Z,24.50
2018-08-14T05:18:48.924Z,24.90
2018-08-14T05:21:16.295Z,25.10
2018-08-14T05:23:43.662Z,25.20
2018-08-14T05:26:11.025Z,25.30
2018-08-14T05:28:38.392Z,25.40
2018-08-14T05:31:05.818Z,25.40
2018-08-14T05:33:33.258Z,25.60
2018-08-14T05:36:00.587Z,25.90
2018-08-14T05:38:27.931Z,26.00
2018-08-14T05:40:55.299Z,25.80
2018-08-14T05:43:22.845Z,25.70
2018-08-14T05:45:50.149Z,25.70
2018-08-14T05:48:17.516Z,25.60
2018-08-14T05:50:44.868Z,25.70
2018-08-14T05:53:12.263Z,26.00
2018-08-14T05:55:39.655Z,26.30
2018-08-14T05:58:07.055Z,26.60
2018-08-14T06:00:34.426Z,26.80
2018-08-14T06:03:01.790Z,27.00
2018-08-14T06:05:29.213Z,26.60
2018-08-14T06:07:56.557Z,26.40
2018-08-14T06:10:23.994Z,26.50
2018-08-14T06:12:51.310Z,27.00
2018-08-14T06:15:18.699Z,27.20
2018-08-14T06:17:46.073Z,26.80
2018-08-14T06:20:14.279Z,26.70
2018-08-14T06:22:42.066Z,26.70
2018-08-14T06:25:10.395Z,27.10
2018-08-14T06:27:37.863Z,27.50
2018-08-14T06:30:22.644Z,27.90
2018-08-14T06:32:50.528Z,28.10
2018-08-14T06:35:18.084Z,28.40
2018-08-14T06:37:45.496Z,28.50
2018-08-14T06:40:15.223Z,28.50
2018-08-14T06:42:42.992Z,28.80
2018-08-14T06:45:12.504Z,28.80
2018-08-14T06:47:39.925Z,28.80
2018-08-14T06:50:09.535Z,29.00
2018-08-14T06:52:36.881Z,29.20
2018-08-14T06:55:05.131Z,29.40
2018-08-14T06:57:32.560Z,29.50
2018-08-14T06:59:59.929Z,29.50
2018-08-14T07:02:27.295Z,29.50
2018-08-14T07:04:54.646Z,28.90
2018-08-14T07:07:22.044Z,28.30
2018-08-14T07:09:49.409Z,27.90
2018-08-14T07:12:16.783Z,28.10
2018-08-14T07:14:44.160Z,28.00
2018-08-14T07:17:11.558Z,28.30
2018-08-14T07:19:38.913Z,28.50
2018-08-14T07:22:06.296Z,28.70
2018-08-14T07:24:33.692Z,28.90
2018-08-14T07:27:01.756Z,29.00
2018-08-14T07:29:29.083Z,29.30
2018-08-14T07:31:56.460Z,29.60
2018-08-14T07:34:23.843Z,29.70
2018-08-14T07:36:51.203Z,29.80
2018-08-14T07:39:18.584Z,29.60
2018-08-14T07:41:45.950Z,29.50
2018-08-14T07:44:13.427Z,29.20
2018-08-14T07:46:40.792Z,29.10
2018-08-14T07:49:08.167Z,28.60
2018-08-14T07:51:35.659Z,28.10
2018-08-14T07:54:03.069Z,28.10
2018-08-14T07:56:30.496Z,28.00
2018-08-14T07:58:58.112Z,27.90
2018-08-14T08:01:25.481Z,27.90
2018-08-14T08:03:53.052Z,28.00
2018-08-14T08:06:20.498Z,27.90
2018-08-14T08:08:47.855Z,27.90
2018-08-14T08:11:15.209Z,28.10
2018-08-14T08:13:42.560Z,28.40
2018-08-14T08:16:09.930Z,28.80
2018-08-14T08:18:37.298Z,28.60
2018-08-14T08:21:04.689Z,28.30
2018-08-14T08:23:32.056Z,28.10
2018-08-14T08:25:59.486Z,28.20
2018-08-14T08:28:26.872Z,28.50
2018-08-14T08:30:54.247Z,28.80
2018-08-14T08:33:21.622Z,29.10
2018-08-14T08:35:49.030Z,29.00
2018-08-14T08:38:16.412Z,29.00
2018-08-14T08:40:43.785Z,28.90
2018-08-14T08:43:11.147Z,28.70
2018-08-14T08:45:38.500Z,28.70
2018-08-14T08:48:17.803Z,28.40
2018-08-14T08:50:45.506Z,28.20
2018-08-14T08:53:14.076Z,28.00
2018-08-14T08:55:41.523Z,27.90
2018-08-14T08:58:08.961Z,28.00
2018-08-14T09:00:36.408Z,28.00
2018-08-14T09:03:03.895Z,28.00
2018-08-14T09:05:31.293Z,28.00
2018-08-14T09:07:58.647Z,28.00
2018-08-14T09:10:26.028Z,28.00
2018-08-14T09:12:53.445Z,28.00
2018-08-14T09:15:20.796Z,28.00
2018-08-14T09:17:48.230Z,27.90
2018-08-14T09:20:15.645Z,27.90
2018-08-14T09:22:43.049Z,27.90
2018-08-14T09:25:12.723Z,27.80
2018-08-14T09:27:40.953Z,27.70
2018-08-14T09:30:10.509Z,27.70
2018-08-14T09:32:38.146Z,27.70
2018-08-14T09:35:06.335Z,27.60
2018-08-14T09:37:33.788Z,27.50
2018-08-14T09:40:01.140Z,27.40
2018-08-14T09:42:28.514Z,27.30
2018-08-14T09:44:55.913Z,27.20
2018-08-14T09:47:23.279Z,27.20
2018-08-14T09:49:50.663Z,27.10
2018-08-14T09:52:18.027Z,27.00
2018-08-14T09:54:45.391Z,27.00
2018-08-14T09:57:12.769Z,26.90
2018-08-14T09:59:40.156Z,26.80
2018-08-14T10:02:23.479Z,26.80
2018-08-14T10:04:56.626Z,26.80
2018-08-14T10:07:29.649Z,26.70
2018-08-14T10:09:57.007Z,26.70
2018-08-14T10:12:24.354Z,26.60
2018-08-14T10:14:57.599Z,26.60
2018-08-14T10:17:24.955Z,26.50
2018-08-14T10:19:52.357Z,26.50
2018-08-14T10:22:19.704Z,26.50
2018-08-14T10:24:47.064Z,26.40
2018-08-14T10:27:14.452Z,26.40
2018-08-14T10:29:41.818Z,26.50
2018-08-14T10:32:09.193Z,26.50
2018-08-14T10:34:36.569Z,26.40
2018-08-14T10:37:03.923Z,26.40
2018-08-14T10:39:31.346Z,26.40
2018-08-14T10:41:58.643Z,26.40
2018-08-14T10:44:26.057Z,26.40
2018-08-14T10:46:53.417Z,26.40
2018-08-14T10:49:20.767Z,26.50
2018-08-14T10:51:48.127Z,26.60
2018-08-14T10:54:15.581Z,26.70
2018-08-14T10:56:42.950Z,26.70
2018-08-14T10:59:10.298Z,26.80
2018-08-14T11:01:37.660Z,26.90
2018-08-14T11:04:05.028Z,27.00
2018-08-14T11:06:32.410Z,27.00
2018-08-14T11:08:59.781Z,27.00
2018-08-14T11:11:29.484Z,26.90
2018-08-14T11:13:57.207Z,26.90
2018-08-14T11:16:24.787Z,26.90
2018-08-14T11:18:52.214Z,27.00
2018-08-14T11:21:19.604Z,27.00
2018-08-14T11:23:47.005Z,27.00
2018-08-14T11:26:14.356Z,27.00
2018-08-14T11:28:41.712Z,27.10
2018-08-14T11:31:09.086Z,27.10
2018-08-14T11:33:36.449Z,27.10
2018-08-14T11:36:05.446Z,27.10
2018-08-14T11:38:33.418Z,27.20
2018-08-14T11:41:00.997Z,27.10
2018-08-14T11:43:28.333Z,27.10
2018-08-14T11:45:55.688Z,27.00
2018-08-14T11:48:23.031Z,27.00
2018-08-14T11:50:50.428Z,26.90
2018-08-14T11:53:17.799Z,26.80
2018-08-14T11:55:45.962Z,26.80
2018-08-14T11:58:13.408Z,26.80
2018-08-14T12:00:40.791Z,26.80
2018-08-14T12:03:08.205Z,26.70
2018-08-14T12:05:35.631Z,26.80
2018-08-14T12:08:03.003Z,26.80
2018-08-14T12:10:30.383Z,26.80
2018-08-14T12:12:57.827Z,26.80
2018-08-14T12:15:25.149Z,26.80
2018-08-14T12:17:52.518Z,26.90
2018-08-14T12:20:21.305Z,26.90
2018-08-14T12:22:48.646Z,26.90
2018-08-14T12:25:17.021Z,26.90
2018-08-14T12:27:45.019Z,27.00
2018-08-14T12:30:15.031Z,27.10
2018-08-14T12:32:42.614Z,27.10
2018-08-14T12:35:10.705Z,27.10
2018-08-14T12:37:38.294Z,27.10
2018-08-14T12:40:07.132Z,27.20
2018-08-14T12:42:34.595Z,27.20
2018-08-14T12:45:01.952Z,27.10
2018-08-14T12:47:29.323Z,27.10
2018-08-14T12:49:56.757Z,27.10
2018-08-14T12:52:24.155Z,27.10
2018-08-14T12:54:51.548Z,27.00
2018-08-14T12:57:18.903Z,27.00
2018-08-14T12:59:46.253Z,26.90
2018-08-14T13:02:13.707Z,26.90
2018-08-14T13:04:41.080Z,26.80
2018-08-14T13:07:08.424Z,26.90
2018-08-14T13:09:35.800Z,26.90
2018-08-14T13:12:03.413Z,26.90
2018-08-14T13:14:30.807Z,27.00
2018-08-14T13:16:58.172Z,26.90
2018-08-14T13:19:25.535Z,26.90
2018-08-14T13:21:52.917Z,26.90
2018-08-14T13:24:20.299Z,26.90
2018-08-14T13:26:47.680Z,27.00
2018-08-14T13:29:15.184Z,27.00
2018-08-14T13:31:42.547Z,27.00
2018-08-14T13:34:09.915Z,26.90
2018-08-14T13:36:37.281Z,26.80
2018-08-14T13:39:06.444Z,26.80
2018-08-14T13:41:33.845Z,26.70
2018-08-14T13:44:01.198Z,26.70
2018-08-14T13:46:28.613Z,26.70
2018-08-14T13:48:56.007Z,26.70
2018-08-14T13:51:23.387Z,26.70
2018-08-14T13:53:50.756Z,26.70
2018-08-14T13:56:18.107Z,26.70
2018-08-14T13:58:45.544Z,26.60
2018-08-14T14:01:12.924Z,26.60
2018-08-14T14:03:40.381Z,26.60
2018-08-14T14:06:08.569Z,26.60
2018-08-14T14:08:35.918Z,26.60
2018-08-14T14:11:03.379Z,26.60
2018-08-14T14:13:30.748Z,26.60
2018-08-14T14:15:58.118Z,26.50
2018-08-14T14:18:25.553Z,26.50
2018-08-14T14:20:52.907Z,26.40
2018-08-14T14:23:20.325Z,26.30
2018-08-14T14:25:47.696Z,26.30
2018-08-14T14:28:15.102Z,26.30
2018-08-14T14:30:42.609Z,26.30
2018-08-14T14:33:09.976Z,26.30
2018-08-14T14:35:37.348Z,26.40
2018-08-14T14:38:04.719Z,26.30
2018-08-14T14:40:32.151Z,26.40
2018-08-14T14:43:01.003Z,26.30
2018-08-14T14:45:28.352Z,26.30
2018-08-14T14:47:55.725Z,26.40
2018-08-14T14:50:23.080Z,26.30
2018-08-14T14:52:50.426Z,26.30
2018-08-14T14:55:19.412Z,26.20
2018-08-14T14:57:46.830Z,26.20
2018-08-14T15:00:23.450Z,26.10
2018-08-14T15:02:51.675Z,26.00
2018-08-14T15:05:19.042Z,26.00
2018-08-14T15:07:47.478Z,25.90
2018-08-14T15:10:14.884Z,25.90
2018-08-14T15:12:42.706Z,25.90
2018-08-14T15:15:10.056Z,26.00
2018-08-14T15:17:38.583Z,26.00
2018-08-14T15:20:13.066Z,26.00
2018-08-14T15:22:41.697Z,26.10
2018-08-14T15:25:10.862Z,26.20
2018-08-14T15:27:48.608Z,26.20
2018-08-14T15:30:17.830Z,26.20
2018-08-14T15:32:45.269Z,26.30
2018-08-14T15:35:12.640Z,26.20
2018-08-14T15:37:39.967Z,26.20
2018-08-14T15:40:07.335Z,26.20
2018-08-14T15:42:34.727Z,26.20
2018-08-14T15:45:02.261Z,26.20
2018-08-14T15:47:29.617Z,26.20
2018-08-14T15:49:56.968Z,26.20
2018-08-14T15:52:24.352Z,26.20
2018-08-14T15:54:51.963Z,26.30
2018-08-14T15:57:19.352Z,26.40
2018-08-14T15:59:46.861Z,26.40
2018-08-14T16:02:14.286Z,26.30
2018-08-14T16:04:41.640Z,26.30
2018-08-14T16:07:08.993Z,26.30
2018-08-14T16:09:36.332Z,26.30
2018-08-14T16:12:04.836Z,26.30
2018-08-14T16:14:32.179Z,26.30
2018-08-14T16:16:59.539Z,26.20
2018-08-14T16:19:26.980Z,26.20
2018-08-14T16:21:54.317Z,26.30
2018-08-14T16:24:21.682Z,26.20
2018-08-14T16:26:49.791Z,26.20
2018-08-14T16:29:17.270Z,26.20
2018-08-14T16:31:44.640Z,26.20
2018-08-14T16:34:11.992Z,26.20
2018-08-14T16:36:39.520Z,26.20
2018-08-14T16:39:08.748Z,26.10
2018-08-14T16:41:36.160Z,26.10
2018-08-14T16:44:03.600Z,26.10
2018-08-14T16:46:31.025Z,26.10
2018-08-14T16:48:58.365Z,26.10
2018-08-14T16:51:26.057Z,26.00
2018-08-14T16:53:54.233Z,26.00
2018-08-14T16:56:21.588Z,26.00
2018-08-14T16:58:48.948Z,25.90
2018-08-14T17:01:16.442Z,25.90
2018-08-14T17:03:43.805Z,25.80
2018-08-14T17:06:11.248Z,25.80
2018-08-14T17:08:38.587Z,25.70
2018-08-14T17:11:05.956Z,25.70
2018-08-14T17:13:33.372Z,25.70
2018-08-14T17:16:00.737Z,25.60
2018-08-14T17:18:28.117Z,25.70
2018-08-14T17:20:54.514Z,25.60
2018-08-14T17:23:21.931Z,25.60
2018-08-14T17:25:49.805Z,25.60
2018-08-14T17:28:17.173Z,25.60
2018-08-14T17:30:44.773Z,25.60
2018-08-14T17:33:12.120Z,25.50
2018-08-14T17:35:40.310Z,25.50
2018-08-14T17:38:08.044Z,25.50
2018-08-14T17:40:35.804Z,25.50
2018-08-14T17:43:03.748Z,25.50
2018-08-14T17:45:31.615Z,25.40
2018-08-14T17:48:02.325Z,25.40
2018-08-14T17:50:30.173Z,25.30
2018-08-14T17:52:58.388Z,25.30
2018-08-14T17:56:00.089Z,25.20
2018-08-14T17:58:28.026Z,25.30
2018-08-14T18:00:55.755Z,25.20
2018-08-14T18:03:23.491Z,25.30
2018-08-14T18:05:51.912Z,25.20
2018-08-14T18:08:19.611Z,25.20
2018-08-14T18:10:47.180Z,25.10
2018-08-14T18:13:14.573Z,25.10
2018-08-14T18:15:42.256Z,25.10
2018-08-14T18:18:09.636Z,25.10
2018-08-14T18:20:36.974Z,25.10
2018-08-14T18:23:04.388Z,25.10
2018-08-14T18:25:31.764Z,25.10
2018-08-14T18:27:59.187Z,25.10
2018-08-14T18:30:26.537Z,25.00
2018-08-14T18:32:54.052Z,25.00
2018-08-14T18:35:21.675Z,24.90
2018-08-14T18:37:49.499Z,25.00
2018-08-14T18:40:18.239Z,25.00
2018-08-14T18:42:46.446Z,25.00
2018-08-14T18:45:16.090Z,25.00
2018-08-14T18:47:43.644Z,25.00
2018-08-14T18:50:11.911Z,24.90
2018-08-14T18:52:39.396Z,25.00
2018-08-14T18:55:08.169Z,25.00
2018-08-14T18:57:35.543Z,25.00
2018-08-14T19:00:04.129Z,25.00
2018-08-14T19:02:31.511Z,25.00
2018-08-14T19:04:58.916Z,25.00
2018-08-14T19:07:26.457Z,25.00
2018-08-14T19:09:53.803Z,25.00
2018-08-14T19:12:21.155Z,25.00
2018-08-14T19:14:48.795Z,25.00
2018-08-14T19:17:16.164Z,24.90
2018-08-14T19:19:43.524Z,24.90
2018-08-14T19:22:10.859Z,24.90
2018-08-14T19:24:38.257Z,24.90
2018-08-14T19:27:05.725Z,24.90
2018-08-14T19:29:33.075Z,24.90
2018-08-14T19:32:00.541Z,24.90
2018-08-14T19:34:27.928Z,24.90
2018-08-14T19:36:55.352Z,24.90
2018-08-14T19:39:22.688Z,24.90
2018-08-14T19:41:50.118Z,24.80
2018-08-14T19:44:17.546Z,24.80
2018-08-14T19:46:44.923Z,24.80
2018-08-14T19:49:12.640Z,24.80
2018-08-14T19:51:40.031Z,24.80
2018-08-14T19:54:07.612Z,24.80
2018-08-14T19:56:35.640Z,24.90
2018-08-14T19:59:03.248Z,24.90
2018-08-14T20:01:30.806Z,24.80
2018-08-14T20:03:58.135Z,24.80
2018-08-14T20:06:25.474Z,24.80
2018-08-14T20:08:52.839Z,24.80
2018-08-14T20:11:20.345Z,24.70
2018-08-14T20:13:47.687Z,24.70
2018-08-14T20:16:15.003Z,24.70
2018-08-14T20:18:42.436Z,24.70
2018-08-14T20:21:09.761Z,24.70
2018-08-14T20:23:38.016Z,24.70
2018-08-14T20:26:05.358Z,24.70
2018-08-14T20:28:33.474Z,24.70
2018-08-14T20:31:00.877Z,24.70
2018-08-14T20:33:28.339Z,24.70
2018-08-14T20:35:55.732Z,24.70
2018-08-14T20:38:23.131Z,24.70
2018-08-14T20:40:50.459Z,24.70
2018-08-14T20:43:17.895Z,24.70
2018-08-14T20:45:45.268Z,24.70
2018-08-14T20:48:12.632Z,24.70
2018-08-14T20:50:39.999Z,24.60
2018-08-14T20:53:07.368Z,24.70
2018-08-14T20:55:34.703Z,24.70
2018-08-14T20:58:02.091Z,24.60
2018-08-14T21:00:30.321Z,24.60
2018-08-14T21:02:57.674Z,24.60
2018-08-14T21:05:25.699Z,24.60
2018-08-14T21:07:53.175Z,24.60
2018-08-14T21:10:20.535Z,24.60
2018-08-14T21:12:47.888Z,24.60
2018-08-14T21:15:20.455Z,24.50
2018-08-14T21:17:47.870Z,24.60
2018-08-14T21:20:16.623Z,24.60
2018-08-14T21:22:44.685Z,24.50
2018-08-14T21:25:12.039Z,24.50
2018-08-14T21:27:39.561Z,24.60
2018-08-14T21:30:09.169Z,24.60
2018-08-14T21:32:36.533Z,24.60
2018-08-14T21:35:05.611Z,24.50
2018-08-14T21:37:32.951Z,24.60
2018-08-14T21:40:00.316Z,24.60
2018-08-14T21:42:27.670Z,24.50
2018-08-14T21:44:55.029Z,24.50
2018-08-14T21:47:22.388Z,24.50
2018-08-14T21:49:49.770Z,24.50
2018-08-14T21:52:17.108Z,24.50
2018-08-14T21:54:44.458Z,24.50
2018-08-14T21:57:11.801Z,24.50
2018-08-14T21:59:39.195Z,24.50
2018-08-14T22:02:06.947Z,24.50
2018-08-14T22:04:34.292Z,24.50
2018-08-14T22:07:01.832Z,24.50
2018-08-14T22:09:29.252Z,24.40
2018-08-14T22:11:56.623Z,24.50
2018-08-14T22:14:24.017Z,24.50
2018-08-14T22:16:51.534Z,24.50
2018-08-14T22:19:18.879Z,24.60
2018-08-14T22:21:46.252Z,24.60
2018-08-14T22:24:13.626Z,24.60
2018-08-14T22:26:41.004Z,24.60
2018-08-14T22:29:08.375Z,24.50
2018-08-14T22:31:35.711Z,24.50
2018-08-14T22:34:03.074Z,24.50
2018-08-14T22:36:30.471Z,24.50
2018-08-14T22:38:57.932Z,24.50
2018-08-14T22:41:25.322Z,24.50
2018-08-14T22:43:52.693Z,24.50
2018-08-14T22:46:20.117Z,24.50
2018-08-14T22:48:47.468Z,24.50
2018-08-14T22:51:14.821Z,24.50
2018-08-14T22:53:42.179Z,24.60
2018-08-14T22:56:09.531Z,24.50
2018-08-14T22:58:36.943Z,24.60
2018-08-14T23:01:04.305Z,24.60
2018-08-14T23:03:31.732Z,24.60
2018-08-14T23:05:59.087Z,24.60
2018-08-14T23:08:26.430Z,24.50
2018-08-14T23:10:53.759Z,24.50
2018-08-14T23:13:21.141Z,24.40
2018-08-14T23:15:54.039Z,24.40
2018-08-14T23:18:21.384Z,24.40
2018-08-14T23:20:48.711Z,24.50
2018-08-14T23:23:16.040Z,24.50
2018-08-14T23:25:43.379Z,24.50
2018-08-14T23:28:10.697Z,24.40
2018-08-14T23:30:38.031Z,24.40
2018-08-14T23:33:05.474Z,24.50
2018-08-14T23:35:32.848Z,24.50
2018-08-14T23:38:00.203Z,24.40
2018-08-14T23:40:27.532Z,24.60
2018-08-14T23:42:54.900Z,24.60
2018-08-14T23:45:22.244Z,24.60
2018-08-14T23:47:49.600Z,24.60
2018-08-14T23:50:16.957Z,24.50
2018-08-14T23:52:44.339Z,24.60
2018-08-14T23:55:11.704Z,24.60
2018-08-14T23:57:39.208Z,24.50
